world map with CEP marked

CEP - Airport

This information may not be accurate or current and is not valid for navigation or flight planning. No warranty of fitness for any purpose is made or implied.

flag of Santa Cruzflag of Bolivia

Donate via PayPal

Additional information is available on the NEW Great Circle Mapper

Location
City:  Concepción, Ńuflo de Chávez, Santa Cruz, Bolivia
Name:Concepción Airport
ICAO / IATA:SLCP / CEP

Details
Type:Airport (Aerodrome, Airfield)
Latitude:16°08'35"S (-16.143055)
Longitude:62°01'34"W (-62.026110)
Elevation:1620 ft (494 m)
Runways:1
Longest:5741 ft (1750 m)

Time
Timezone:UTC+30:08 (DST+32:08)
Local Time:

Weather
METAR:SLCP  041400Z 18016KT 9999 BKN015 OVC070 24/21 Q1019

Related Locations
Nearby:
Farthest:RPUI: 12302 mi / 19798 km
Iba, PH

Find:

   beyond  
but within

Other Information
Maps:
Sources:

  


 


Great Circle Mapper   Great Circle Mapper
Great Circle Mapper FAQ   Great Circle Mapper FAQ
  Karl's Home Page
KLS˛   KLS˛ Home
   GC on Facebook
Airlines of the World   Airlines of the World
Donate via PayPal


Copyright © 2004-2019, Karl L. Swartz. All rights reserved.
All trademarks mentioned herein belong to their respective owners.

Please see credits for attribution and copyright information.

Karl Swartz <karl@kls2.com>
  Powered by FreeBSD
Valid HTML 4.01!
Labeled with ICRA
hCard Microformat
Geo Microformat